Terminal Aerodrome Forecast
Issued by NWS Albany, NY

Home | Current Version | Previous Version | Text Only | Print | Product List | Glossary On
Versions: 1 2 3 4 5 6 7 8 9 10 11 12 13 14 15 16 17 18 19 20 21 22 23
000
FTUS41 KALY 201100
TAFALB
TAF
KALB 201133Z 2012/2112 17004KT P6SM BKN120
     FM201500 18008KT P6SM BKN120
     FM202300 17004KT P6SM SCT060 OVC100
     FM210700 15003KT P6SM VCSH OVC050=

USA.gov is the U.S. government's official web portal to all federal, state and local government web resources and services.